Iowa Falls, IA

2:04 PM CDT on July 26, 2017 (GMT -0500)
Iowa Falls Municipal

Weather History for KIFA - February, 2014

Change the Weather History Date:

Thursday, February 20, 2014

  Actual Average Record
Temperature  
Mean Temperature 29 °F -  
Max Temperature 36 °F 33 °F 57 °F (2017)
Min Temperature 21 °F 14 °F -11 °F (1959)
Degree Days  
Heating Degree Days 36    
Moisture  
Dew Point 32 °F    
Average Humidity 94    
Maximum Humidity 100    
Minimum Humidity 81    
Precipitation  
Precipitation 0.31 in - - ()
Sea Level Pressure  
Sea Level Pressure 29.48 in    
Wind  
Wind Speed 12 mph (NE)    
Max Wind Speed 38 mph    
Max Gust Speed 44 mph    
Visibility 3 miles    
Events Fog , Rain , Snow    
Averages and records for this station are not official NWS values.
T = Trace of Precipitation, MM = Missing Value Source: NWS Daily Summary

Daily Weather History Graph

Daily Weather History Graph

Search for Another Location

Airport or City:

Trip Planner

Search our weather history database for the weather conditions in past years. The results will help you decide how hot, cold, wet, or windy it might be!

Date:

Astronomy

Feb. 20, 2014 Rise Set
Actual Time 7:02 AM CST 5:51 PM CST
Civil Twilight 6:33 AM CST 6:20 PM CST
Nautical Twilight 6:01 AM CST 6:53 PM CST
Astronomical Twilight 5:28 AM CST 7:25 PM CST
Moon 11:54 PM CST (2/20) 9:38 AM CST (2/20)
Length of Visible Light 11h 46m
Length of Day
10h 49m
Waning Gibbous, 70% of the Moon is Illuminated
Feb 20
Waning Gibbous
Feb 22
Last Quarter
Mar 1
New
Mar 8
First Quarter
Mar 16
Full

Hourly Weather History & Observations

Time (CST) Temp. Windchill Dew Point Humidity Pressure Visibility Wind Dir Wind Speed Gust Speed Precip Events Conditions
12:15 AM 36.5 °F 27.4 °F 31.1 °F 81% 29.65 in 10.0 mi SE 15.0 mph - N/A   Mostly Cloudy
12:16 AM 35.6 °F 26.2 °F 30.2 °F 81% 29.65 in 10.0 mi SE 15.0 mph - N/A   Mostly Cloudy
12:35 AM 36.5 °F 30.3 °F 31.1 °F 81% 29.65 in 10.0 mi SE 8.1 mph - N/A   Mostly Cloudy
12:55 AM 36.0 °F 28.0 °F 31.1 °F 82% 29.65 in 10.0 mi SE 11.5 mph - N/A   Mostly Cloudy
1:15 AM 35.6 °F 29.2 °F 31.6 °F 85% 29.65 in 10.0 mi SE 8.1 mph - N/A   Mostly Cloudy
1:35 AM 35.2 °F 28.8 °F 32.0 °F 88% 29.65 in 10.0 mi SE 8.1 mph - N/A   Overcast
1:37 AM 35.6 °F 29.2 °F 32.0 °F 87% 29.65 in 10.0 mi SE 8.1 mph - N/A   Overcast
1:55 AM 35.1 °F 31.0 °F 32.0 °F 89% 29.65 in 10.0 mi ESE 4.6 mph - N/A   Overcast
2:15 AM 35.1 °F - 32.4 °F 90% 29.65 in 10.0 mi Calm Calm - N/A   Overcast
2:17 AM 35.6 °F - 32.0 °F 87% 29.66 in 10.0 mi Calm Calm - N/A   Overcast
2:36 AM 34.9 °F - 32.2 °F 90% 29.65 in 10.0 mi Calm Calm - N/A   Overcast
2:55 AM 35.6 °F 32.8 °F 33.8 °F 93% 29.65 in 10.0 mi NNE 3.5 mph - N/A   Overcast
3:13 AM 35.6 °F 32.8 °F 33.8 °F 93% 29.65 in 10.0 mi North 3.5 mph - N/A   Overcast
3:15 AM 35.6 °F 32.8 °F 32.9 °F 90% 29.65 in 10.0 mi North 3.5 mph - N/A   Overcast
3:35 AM 35.8 °F 30.9 °F 33.1 °F 90% 29.63 in 10.0 mi ENE 5.8 mph - N/A   Overcast
3:37 AM 35.6 °F 32.8 °F 33.8 °F 93% 29.63 in 10.0 mi ENE 3.5 mph - N/A   Overcast
3:55 AM 35.8 °F 30.9 °F 32.5 °F 88% 29.62 in 10.0 mi ENE 5.8 mph - N/A   Overcast
4:15 AM 35.8 °F 30.9 °F 32.9 °F 89% 29.61 in 10.0 mi ENE 5.8 mph - N/A   Overcast
4:35 AM 35.2 °F 28.1 °F 32.9 °F 91% 29.59 in 7.0 mi ENE 9.2 mph - N/A   Overcast
4:37 AM 35.6 °F 29.2 °F 33.8 °F 93% 29.59 in 7.0 mi ENE 8.1 mph - N/A   Overcast
4:55 AM 34.7 °F 29.6 °F 32.5 °F 92% 29.60 in 7.0 mi ENE 5.8 mph - N/A   Overcast
4:57 AM 35.6 °F 29.9 °F 33.8 °F 93% 29.60 in 7.0 mi ENE 6.9 mph - N/A   Overcast
5:15 AM 34.7 °F 27.5 °F 32.5 °F 92% 29.60 in 5.0 mi East 9.2 mph - N/A   Overcast
5:17 AM 35.6 °F 28.6 °F 33.8 °F 93% 29.60 in 5.0 mi East 9.2 mph - N/A   Overcast
5:35 AM 34.3 °F 28.4 °F 32.5 °F 93% 29.59 in 4.0 mi ENE 6.9 mph - N/A   Overcast
5:37 AM 33.8 °F 27.0 °F 33.8 °F 100% 29.59 in 4.0 mi ENE 8.1 mph - N/A   Overcast
5:55 AM 34.0 °F 27.2 °F 32.4 °F 94% 29.57 in 3.0 mi ENE 8.1 mph - N/A   Overcast
5:56 AM 33.8 °F 26.4 °F 32.0 °F 93% 29.57 in 3.0 mi ENE 9.2 mph - N/A   Overcast
6:11 AM 33.8 °F 25.3 °F 33.8 °F 100% 29.54 in 2.5 mi ENE 11.5 mph - N/A   Overcast
6:15 AM 34.0 °F 26.0 °F 32.5 °F 94% 29.54 in 2.5 mi ENE 10.4 mph - N/A   Overcast
6:33 AM 33.8 °F 26.4 °F 32.0 °F 93% 29.56 in 1.2 mi East 9.2 mph - N/A   Overcast
6:35 AM 33.8 °F 27.0 °F 32.4 °F 94% 29.56 in 1.2 mi East 8.1 mph - N/A   Overcast
6:55 AM 33.8 °F 27.7 °F 32.5 °F 95% 29.56 in 1.2 mi East 6.9 mph - N/A   Overcast
6:56 AM 33.8 °F 27.7 °F 33.8 °F 100% 29.56 in 1.0 mi East 6.9 mph - N/A   Overcast
7:15 AM 34.0 °F 28.0 °F 32.9 °F 96% 29.56 in 0.5 mi East 6.9 mph - N/A Fog Fog
7:16 AM 33.8 °F 28.6 °F 33.8 °F 100% 29.56 in 0.5 mi East 5.8 mph - N/A Fog Fog
7:35 AM 34.2 °F 26.8 °F 33.1 °F 96% 29.54 in 0.5 mi ENE 9.2 mph - N/A Fog Fog
7:36 AM 33.8 °F 26.4 °F 33.8 °F 100% 29.53 in 0.5 mi ENE 9.2 mph - N/A Fog Fog
7:55 AM 34.0 °F 26.0 °F 32.9 °F 96% 29.54 in 0.2 mi East 10.4 mph - N/A Fog Fog
7:56 AM 33.8 °F 25.8 °F 33.8 °F 100% 29.54 in 0.2 mi ENE 10.4 mph - N/A Fog Fog
8:15 AM 33.8 °F 28.6 °F 32.9 °F 96% 29.55 in 0.2 mi East 5.8 mph - N/A Fog Fog
8:16 AM 33.8 °F 27.7 °F 33.8 °F 100% 29.55 in 0.2 mi East 6.9 mph - N/A Fog Fog
8:35 AM 33.8 °F 27.0 °F 32.9 °F 96% 29.54 in 0.2 mi East 8.1 mph - N/A Fog Fog
8:37 AM 33.8 °F 27.0 °F 33.8 °F 100% 29.54 in 0.2 mi East 8.1 mph - N/A Fog Fog
8:55 AM 34.0 °F 28.8 °F 32.9 °F 96% 29.53 in 0.5 mi East 5.8 mph - N/A Fog Fog
8:57 AM 33.8 °F 28.6 °F 33.8 °F 100% 29.53 in 0.5 mi East 5.8 mph - N/A Fog Fog
9:15 AM 34.0 °F 26.0 °F 32.9 °F 96% 29.50 in 0.8 mi East 10.4 mph - N/A   Overcast
9:16 AM 33.8 °F 25.8 °F 33.8 °F 100% 29.49 in 0.8 mi East 10.4 mph - N/A   Overcast
9:35 AM 34.0 °F 25.0 °F 32.9 °F 96% 29.46 in 0.8 mi East 12.7 mph - N/A Rain Light Rain
9:37 AM 33.8 °F 25.8 °F 33.8 °F 100% 29.47 in 0.8 mi East 10.4 mph - N/A Snow Light Snow
9:55 AM 34.0 °F 27.2 °F 32.9 °F 96% 29.44 in 0.5 mi ENE 8.1 mph - N/A Fog Fog
9:56 AM 33.8 °F 27.0 °F 33.8 °F 100% 29.44 in 0.5 mi ENE 8.1 mph - N/A Fog Fog
10:15 AM 34.2 °F 25.7 °F 33.3 °F 97% 29.43 in 0.5 mi ENE 11.5 mph - N/A Fog Fog
10:16 AM 33.8 °F 25.8 °F 33.8 °F 100% 29.42 in 0.5 mi ENE 10.4 mph - N/A Fog Fog
10:35 AM 34.2 °F 24.8 °F 33.1 °F 96% 29.39 in 0.2 mi ENE 13.8 mph 17.3 mph N/A Snow Light Snow
10:36 AM 33.8 °F 24.3 °F 33.8 °F 100% 29.39 in 0.2 mi ENE 13.8 mph - N/A Snow Light Snow
10:55 AM 34.0 °F 25.5 °F 33.1 °F 96% 29.38 in 0.2 mi ENE 11.5 mph - N/A Rain Light Rain
10:56 AM 33.8 °F 24.8 °F 33.8 °F 100% 29.38 in 0.2 mi ENE 12.7 mph 17.3 mph N/A Rain Light Rain
11:16 AM 33.8 °F 26.4 °F 33.8 °F 100% 29.36 in 0.2 mi ENE 9.2 mph - N/A Rain Light Rain
11:37 AM 33.8 °F 25.8 °F 33.8 °F 100% 29.35 in 0.2 mi NE 10.4 mph - N/A Rain Light Rain
12:15 PM 33.8 °F 29.6 °F 33.8 °F 100% 29.38 in 0.2 mi North 4.6 mph 15.0 mph 0.03 in Snow Light Snow
12:31 PM 33.8 °F 28.6 °F 32.0 °F 93% 29.37 in 0.5 mi NNW 5.8 mph - 0.11 in Snow Light Snow
12:55 PM 33.8 °F 26.4 °F 32.0 °F 93% 29.33 in 1.2 mi North 9.2 mph - 0.17 in Snow Light Snow
1:11 PM 33.8 °F 25.3 °F 32.0 °F 93% 29.30 in 0.8 mi North 11.5 mph - 0.01 in Snow Light Snow
1:34 PM 33.8 °F 25.8 °F 32.0 °F 93% 29.32 in 0.2 mi NW 10.4 mph - 0.07 in Snow Snow
1:35 PM 32.5 °F 24.2 °F 32.0 °F 98% 29.32 in 0.2 mi NW 10.4 mph - 0.07 in Snow Snow
1:55 PM 33.8 °F 26.4 °F 32.0 °F 93% 29.30 in 0.2 mi NNW 9.2 mph - 0.11 in Snow Snow
2:12 PM 33.8 °F 25.3 °F 32.0 °F 93% 29.29 in 0.2 mi NNW 11.5 mph - 0.02 in Snow Snow
2:18 PM 32.9 °F 22.0 °F 32.0 °F 96% 29.24 in 0.5 mi North 17.3 mph - 0.02 in Snow Snow
2:35 PM 32.9 °F 22.0 °F 32.0 °F 96% 29.21 in 0.2 mi NNW 17.3 mph - 0.03 in Snow Snow
3:12 PM 33.8 °F 22.5 °F 32.0 °F 93% 29.23 in 10.0 mi NW 19.6 mph - N/A Snow Light Snow
3:37 PM 33.8 °F 22.2 °F 32.0 °F 93% 29.24 in 1.8 mi NW 20.7 mph - N/A Snow Light Snow
3:56 PM 33.8 °F 21.9 °F 32.0 °F 93% 29.24 in 1.0 mi NNW 21.9 mph - N/A Snow Light Snow
4:13 PM 33.8 °F 22.8 °F 32.0 °F 93% 29.25 in 1.2 mi NW 18.4 mph - N/A Snow Light Snow
5:15 PM 32.9 °F 20.1 °F 32.0 °F 96% 29.30 in 0.5 mi WNW 24.2 mph - N/A Snow Snow
5:35 PM 32.9 °F 19.8 °F 32.0 °F 96% 29.31 in 0.2 mi WNW 25.3 mph - N/A Snow Light Snow
5:55 PM 32.9 °F 19.6 °F 32.0 °F 96% 29.33 in 0.5 mi WNW 26.5 mph 32.2 mph N/A Snow Snow
6:15 PM 32.9 °F 19.1 °F 32.0 °F 96% 29.33 in 0.8 mi WNW 28.8 mph 35.7 mph N/A Snow Snow
6:35 PM 32.9 °F 18.0 °F 32.0 °F 96% 29.35 in 0.8 mi West 34.5 mph 40.3 mph N/A Snow Snow
6:55 PM 32.9 °F 18.4 °F 32.0 °F 96% 29.36 in 1.2 mi West 32.2 mph - N/A Snow Light Snow
7:15 PM 32.9 °F 18.4 °F 32.0 °F 96% 29.38 in 2.0 mi West 32.2 mph 38.0 mph N/A Snow Light Snow
7:35 PM 32.9 °F 18.2 °F 31.8 °F 96% 29.39 in 2.0 mi West 33.4 mph - N/A Snow Light Snow
7:55 PM 32.9 °F 18.2 °F 31.8 °F 96% 29.39 in 3.0 mi West 33.4 mph 36.8 mph N/A Snow Light Snow
8:15 PM 32.5 °F 18.1 °F 31.6 °F 96% 29.40 in 2.5 mi West 31.1 mph 38.0 mph N/A Snow Light Snow
8:35 PM 32.2 °F 17.6 °F 31.1 °F 96% 29.41 in 1.2 mi West 31.1 mph 36.8 mph N/A Snow Light Snow
8:55 PM 32.0 °F 17.4 °F 30.9 °F 96% 29.42 in 0.8 mi WNW 31.1 mph - N/A Snow Snow
9:15 PM 30.9 °F 16.2 °F 29.5 °F 94% 29.42 in 0.2 mi WNW 29.9 mph 39.1 mph N/A Snow Heavy Snow
9:35 PM 29.5 °F 13.5 °F 27.7 °F 93% 29.44 in 0.2 mi WNW 33.4 mph 43.7 mph N/A Snow Heavy Snow
9:55 PM 28.9 °F 11.9 °F 27.1 °F 93% 29.46 in 0.5 mi WNW 38.0 mph 43.7 mph N/A Snow Heavy Snow
10:15 PM 26.8 °F 10.8 °F 25.2 °F 94% 29.46 in 0.2 mi WNW 28.8 mph 35.7 mph N/A Snow Heavy Snow
10:35 PM 26.2 °F 10.9 °F 24.4 °F 93% 29.47 in 0.5 mi WNW 25.3 mph 43.7 mph N/A Snow Heavy Snow
10:55 PM 24.6 °F 7.6 °F 22.8 °F 93% 29.48 in 0.2 mi West 29.9 mph 39.1 mph N/A Snow Heavy Snow
11:15 PM 23.7 °F 6.4 °F 21.7 °F 92% 29.49 in 0.5 mi West 29.9 mph 34.5 mph N/A Snow Heavy Snow
11:35 PM 22.1 °F 4.5 °F 19.8 °F 91% 29.50 in 0.5 mi West 28.8 mph 34.5 mph N/A Snow Snow
11:55 PM 21.0 °F 5.0 °F 18.5 °F 90% 29.49 in 1.8 mi WNW 21.9 mph - N/A Snow Light Snow